createdAt,value
2018-06-24T00:00:26.055Z,18.10
2018-06-24T00:02:55.495Z,18.20
2018-06-24T00:05:24.835Z,18.10
2018-06-24T00:07:54.835Z,18.10
2018-06-24T00:10:24.175Z,18.10
2018-06-24T00:12:53.575Z,18.10
2018-06-24T00:15:22.836Z,17.90
2018-06-24T00:17:52.109Z,18.10
2018-06-24T00:20:21.875Z,18.00
2018-06-24T00:22:51.235Z,17.80
2018-06-24T00:25:20.674Z,18.00
2018-06-24T00:27:49.975Z,17.90
2018-06-24T00:30:19.317Z,18.00
2018-06-24T00:32:48.935Z,17.90
2018-06-24T00:35:18.635Z,17.90
2018-06-24T00:37:47.981Z,17.90
2018-06-24T00:40:16.935Z,17.80
2018-06-24T00:42:46.755Z,18.00
2018-06-24T00:45:16.615Z,17.80
2018-06-24T00:47:45.935Z,17.80
2018-06-24T00:50:15.775Z,17.80
2018-06-24T00:52:45.135Z,17.90
2018-06-24T00:55:14.455Z,17.90
2018-06-24T00:57:43.781Z,17.60
2018-06-24T01:00:20.195Z,17.80
2018-06-24T01:02:49.795Z,17.80
2018-06-24T01:05:19.594Z,17.70
2018-06-24T01:07:49.165Z,17.60
2018-06-24T01:10:18.925Z,17.70
2018-06-24T01:12:48.666Z,17.60
2018-06-24T01:15:18.025Z,17.60
2018-06-24T01:17:47.364Z,17.60
2018-06-24T01:20:16.885Z,17.60
2018-06-24T01:22:52.724Z,17.70
2018-06-24T01:25:28.265Z,17.60
2018-06-24T01:28:03.745Z,17.40
2018-06-24T01:30:35.684Z,17.40
2018-06-24T01:33:05.005Z,17.40
2018-06-24T01:35:34.725Z,17.50
2018-06-24T01:38:04.465Z,17.40
2018-06-24T01:40:33.884Z,17.40
2018-06-24T01:43:03.384Z,17.30
2018-06-24T01:45:32.844Z,17.30
2018-06-24T01:48:02.105Z,17.30
2018-06-24T01:50:31.385Z,17.20
2018-06-24T01:53:00.945Z,17.30
2018-06-24T01:55:30.485Z,17.30
2018-06-24T01:57:59.925Z,17.30
2018-06-24T02:00:29.925Z,16.90
2018-06-24T02:02:59.325Z,17.20
2018-06-24T02:05:31.745Z,17.30
2018-06-24T02:08:01.385Z,17.10
2018-06-24T02:10:31.005Z,17.00
2018-06-24T02:13:06.885Z,16.90
2018-06-24T02:15:36.545Z,16.70
2018-06-24T02:18:05.985Z,16.80
2018-06-24T02:20:35.325Z,16.90
2018-06-24T02:23:04.745Z,17.00
2018-06-24T02:25:34.584Z,16.90
2018-06-24T02:28:04.285Z,16.70
2018-06-24T02:30:34.100Z,16.60
2018-06-24T02:33:03.485Z,16.40
2018-06-24T02:35:33.325Z,16.40
2018-06-24T02:38:02.769Z,16.40
2018-06-24T02:40:32.105Z,16.20
2018-06-24T02:43:01.545Z,16.10
2018-06-24T02:45:30.965Z,16.20
2018-06-24T02:48:00.345Z,16.00
2018-06-24T02:50:30.046Z,16.10
2018-06-24T02:52:59.366Z,16.00
2018-06-24T02:55:28.667Z,16.00
2018-06-24T02:57:58.106Z,15.80
2018-06-24T03:00:27.513Z,15.80
2018-06-24T03:02:57.046Z,15.80
2018-06-24T03:05:26.684Z,15.80
2018-06-24T03:07:56.086Z,15.70
2018-06-24T03:10:25.386Z,15.80
2018-06-24T03:12:54.746Z,15.80
2018-06-24T03:15:24.086Z,15.80
2018-06-24T03:17:53.466Z,15.90
2018-06-24T03:20:22.785Z,15.80
2018-06-24T03:22:51.966Z,15.90
2018-06-24T03:25:21.406Z,16.00
2018-06-24T03:27:50.726Z,15.90
2018-06-24T03:30:19.972Z,16.00
2018-06-24T03:32:49.306Z,16.10
2018-06-24T03:35:18.746Z,16.10
2018-06-24T03:37:48.026Z,16.00
2018-06-24T03:40:17.307Z,15.90
2018-06-24T03:42:46.886Z,15.90
2018-06-24T03:45:16.586Z,16.00
2018-06-24T03:47:45.986Z,15.90
2018-06-24T03:50:15.428Z,16.10
2018-06-24T03:52:44.786Z,15.80
2018-06-24T03:55:14.308Z,15.90
2018-06-24T03:57:43.765Z,16.00
2018-06-24T04:00:12.826Z,16.10
2018-06-24T04:02:42.425Z,16.00
2018-06-24T04:05:12.026Z,15.90
2018-06-24T04:07:41.351Z,15.90
2018-06-24T04:10:10.966Z,16.00
2018-06-24T04:12:40.665Z,16.00
2018-06-24T04:15:10.206Z,16.00
2018-06-24T04:17:39.485Z,16.00
2018-06-24T04:20:08.888Z,15.90
2018-06-24T04:22:38.229Z,16.10
2018-06-24T04:25:07.706Z,16.10
2018-06-24T04:27:36.986Z,16.00
2018-06-24T04:30:08.026Z,16.10
2018-06-24T04:32:37.590Z,16.10
2018-06-24T04:35:08.227Z,16.00
2018-06-24T04:37:38.026Z,16.00
2018-06-24T04:40:07.426Z,15.90
2018-06-24T04:42:36.766Z,16.10
2018-06-24T04:45:06.626Z,16.00
2018-06-24T04:47:36.286Z,16.10
2018-06-24T04:50:05.907Z,16.20
2018-06-24T04:52:35.464Z,16.20
2018-06-24T04:55:04.966Z,16.10
2018-06-24T04:57:34.326Z,16.30
2018-06-24T05:00:03.709Z,16.40
2018-06-24T05:02:33.506Z,16.30
2018-06-24T05:05:03.106Z,16.30
2018-06-24T05:07:32.226Z,16.40
2018-06-24T05:10:01.826Z,16.40
2018-06-24T05:12:31.128Z,16.50
2018-06-24T05:15:00.466Z,16.30
2018-06-24T05:17:29.806Z,16.30
2018-06-24T05:19:59.166Z,16.20
2018-06-24T05:22:28.686Z,16.30
2018-06-24T05:24:58.307Z,16.50
2018-06-24T05:27:27.679Z,16.30
2018-06-24T05:29:56.992Z,16.40
2018-06-24T05:32:26.286Z,16.40
2018-06-24T05:34:55.950Z,16.40
2018-06-24T05:37:25.506Z,16.30
2018-06-24T05:39:54.906Z,16.40
2018-06-24T05:42:24.246Z,16.40
2018-06-24T05:44:53.726Z,16.50
2018-06-24T05:47:23.086Z,16.30
2018-06-24T05:49:52.346Z,16.30
2018-06-24T05:52:21.686Z,16.30
2018-06-24T05:54:51.026Z,16.30
2018-06-24T05:57:20.553Z,16.40
2018-06-24T05:59:49.885Z,16.70
2018-06-24T06:02:19.226Z,16.50
2018-06-24T06:04:48.606Z,16.70
2018-06-24T06:07:17.926Z,16.80
2018-06-24T06:09:47.530Z,16.90
2018-06-24T06:12:17.186Z,16.80
2018-06-24T06:14:46.366Z,17.00
2018-06-24T06:17:16.006Z,17.00
2018-06-24T06:19:45.706Z,16.90
2018-06-24T06:22:15.541Z,17.10
2018-06-24T06:24:45.006Z,17.20
2018-06-24T06:27:14.467Z,17.20
2018-06-24T06:29:43.887Z,17.20
2018-06-24T06:32:13.345Z,17.30
2018-06-24T06:34:42.706Z,17.30
2018-06-24T06:37:12.266Z,17.50
2018-06-24T06:39:41.626Z,17.60
2018-06-24T06:42:10.989Z,17.60
2018-06-24T06:44:40.446Z,17.80
2018-06-24T06:47:09.736Z,18.00
2018-06-24T06:49:39.606Z,18.20
2018-06-24T06:52:09.146Z,18.40
2018-06-24T06:54:38.546Z,18.40
2018-06-24T06:57:09.187Z,18.90
2018-06-24T06:59:39.886Z,19.30
2018-06-24T07:02:09.406Z,19.40
2018-06-24T07:04:38.728Z,19.30
2018-06-24T07:07:08.807Z,19.30
2018-06-24T07:09:38.266Z,19.60
2018-06-24T07:12:07.606Z,19.60
2018-06-24T07:14:36.956Z,19.80
2018-06-24T07:17:06.304Z,19.90
2018-06-24T07:19:35.706Z,19.60
2018-06-24T07:22:05.210Z,19.60
2018-06-24T07:24:34.626Z,19.80
2018-06-24T07:27:04.106Z,19.70
2018-06-24T07:29:33.446Z,20.30
2018-06-24T07:32:02.846Z,20.30
2018-06-24T07:34:32.166Z,20.30
2018-06-24T07:37:01.586Z,20.30
2018-06-24T07:39:30.846Z,19.90
2018-06-24T07:42:00.726Z,19.90
2018-06-24T07:44:30.109Z,20.20
2018-06-24T07:46:59.186Z,20.50
2018-06-24T07:49:28.605Z,20.30
2018-06-24T07:51:58.126Z,20.30
2018-06-24T07:54:28.166Z,20.40
2018-06-24T07:56:57.866Z,20.20
2018-06-24T07:59:27.909Z,20.00
2018-06-24T08:01:57.506Z,19.90
2018-06-24T08:04:26.846Z,20.00
2018-06-24T08:06:56.186Z,20.20
2018-06-24T08:09:25.826Z,20.30
2018-06-24T08:11:55.266Z,20.20
2018-06-24T08:14:24.666Z,19.80
2018-06-24T08:16:54.669Z,20.10
2018-06-24T08:19:24.546Z,19.90
2018-06-24T08:21:53.750Z,20.00
2018-06-24T08:24:23.590Z,20.10
2018-06-24T08:26:53.325Z,20.00
2018-06-24T08:29:22.345Z,19.80
2018-06-24T08:31:51.866Z,19.90
2018-06-24T08:34:21.006Z,19.80
2018-06-24T08:36:50.106Z,19.70
2018-06-24T08:39:19.033Z,19.70
2018-06-24T08:41:48.326Z,20.00
2018-06-24T08:44:17.966Z,20.00
2018-06-24T08:46:47.346Z,20.10
2018-06-24T08:49:17.206Z,19.90
2018-06-24T08:51:46.787Z,20.20
2018-06-24T08:54:16.185Z,20.30
2018-06-24T08:56:45.369Z,20.10
2018-06-24T08:59:14.916Z,20.30
2018-06-24T09:01:44.297Z,20.20
2018-06-24T09:04:13.635Z,20.60
2018-06-24T09:06:42.918Z,20.70
2018-06-24T09:09:11.911Z,21.00
2018-06-24T09:11:41.191Z,21.40
2018-06-24T09:14:10.532Z,21.40
2018-06-24T09:16:40.133Z,21.40
2018-06-24T09:19:09.412Z,21.20
2018-06-24T09:21:38.814Z,21.40
2018-06-24T09:24:08.231Z,21.60
2018-06-24T09:26:37.471Z,21.70
2018-06-24T09:29:06.931Z,21.90
2018-06-24T09:31:36.564Z,22.10
2018-06-24T09:34:06.266Z,21.60
2018-06-24T09:36:35.905Z,22.10
2018-06-24T09:39:09.890Z,22.40
2018-06-24T09:41:39.431Z,22.50
2018-06-24T09:44:08.712Z,21.90
2018-06-24T09:46:38.535Z,22.10
2018-06-24T09:49:08.160Z,22.30
2018-06-24T09:51:38.026Z,22.40
2018-06-24T09:54:07.866Z,22.70
2018-06-24T09:56:37.174Z,23.20
2018-06-24T09:59:06.493Z,23.10
2018-06-24T10:01:35.811Z,22.80
2018-06-24T10:04:05.743Z,22.60
2018-06-24T10:06:35.443Z,23.00
2018-06-24T10:09:07.921Z,23.30
2018-06-24T10:11:37.322Z,23.60
2018-06-24T10:14:06.777Z,23.80
2018-06-24T10:16:36.234Z,23.70
2018-06-24T10:19:05.996Z,23.30
2018-06-24T10:21:35.743Z,22.90
2018-06-24T10:24:05.330Z,22.30
2018-06-24T10:26:34.694Z,22.00
2018-06-24T10:29:04.154Z,21.60
2018-06-24T10:31:33.362Z,21.60
2018-06-24T10:34:03.153Z,21.70
2018-06-24T10:36:32.637Z,21.30
2018-06-24T10:39:02.098Z,21.20
2018-06-24T10:41:31.358Z,21.10
2018-06-24T10:44:00.778Z,21.10
2018-06-24T10:46:30.395Z,21.30
2018-06-24T10:49:00.075Z,21.40
2018-06-24T10:51:29.642Z,21.60
2018-06-24T10:53:59.314Z,21.70
2018-06-24T10:56:28.694Z,21.80
2018-06-24T10:58:58.135Z,22.10
2018-06-24T11:01:27.506Z,22.10
2018-06-24T11:03:57.126Z,22.00
2018-06-24T11:06:26.543Z,21.90
2018-06-24T11:08:55.964Z,22.30
2018-06-24T11:11:25.304Z,22.50
2018-06-24T11:13:54.664Z,23.10
2018-06-24T11:16:24.202Z,23.10
2018-06-24T11:18:53.745Z,23.00
2018-06-24T11:21:23.121Z,23.20
2018-06-24T11:23:52.529Z,23.00
2018-06-24T11:26:22.124Z,22.50
2018-06-24T11:28:51.184Z,22.40
2018-06-24T11:31:20.593Z,22.40
2018-06-24T11:33:50.332Z,22.50
2018-06-24T11:36:19.585Z,22.70
2018-06-24T11:38:48.704Z,23.30
2018-06-24T11:41:18.087Z,23.40
2018-06-24T11:43:47.394Z,23.80
2018-06-24T11:46:16.767Z,23.60
2018-06-24T11:48:46.048Z,23.80
2018-06-24T11:51:15.567Z,23.80
2018-06-24T11:53:44.928Z,24.10
2018-06-24T11:56:14.308Z,24.20
2018-06-24T11:58:43.569Z,24.30
2018-06-24T12:01:12.928Z,23.90
2018-06-24T12:03:42.248Z,23.60
2018-06-24T12:06:11.348Z,23.90
2018-06-24T12:08:40.348Z,23.60
2018-06-24T12:11:10.449Z,23.70
2018-06-24T12:13:40.228Z,23.60
2018-06-24T12:16:09.611Z,24.00
2018-06-24T12:18:39.131Z,23.80
2018-06-24T12:21:08.668Z,23.70
2018-06-24T12:23:38.032Z,24.00
2018-06-24T12:26:07.348Z,24.00
2018-06-24T12:28:37.068Z,23.90
2018-06-24T12:31:06.449Z,23.70
2018-06-24T12:33:35.748Z,23.50
2018-06-24T12:36:05.416Z,23.70
2018-06-24T12:38:34.890Z,23.90
2018-06-24T12:41:03.988Z,24.30
2018-06-24T12:43:33.428Z,24.30
2018-06-24T12:46:02.789Z,24.20
2018-06-24T12:48:32.129Z,24.50
2018-06-24T12:51:01.536Z,24.60
2018-06-24T12:53:31.069Z,25.30
2018-06-24T12:56:00.649Z,25.10
2018-06-24T12:58:30.017Z,25.20
2018-06-24T13:00:59.635Z,25.30
2018-06-24T13:03:28.768Z,25.00
2018-06-24T13:05:58.209Z,25.00
2018-06-24T13:08:27.328Z,24.40
2018-06-24T13:10:57.171Z,24.30
2018-06-24T13:13:26.671Z,24.50
2018-06-24T13:15:56.451Z,24.60
2018-06-24T13:18:25.831Z,24.90
2018-06-24T13:20:55.272Z,25.00
2018-06-24T13:23:24.844Z,25.30
2018-06-24T13:25:54.644Z,25.20
2018-06-24T13:28:24.105Z,24.90
2018-06-24T13:30:53.244Z,24.60
2018-06-24T13:33:22.306Z,24.20
2018-06-24T13:35:51.784Z,24.30
2018-06-24T13:38:21.124Z,24.30
2018-06-24T13:40:50.604Z,24.50
2018-06-24T13:43:19.923Z,24.50
2018-06-24T13:45:49.264Z,24.70
2018-06-24T13:48:18.664Z,24.90
2018-06-24T13:50:47.964Z,24.80
2018-06-24T13:53:17.311Z,24.60
2018-06-24T13:55:46.944Z,25.00
2018-06-24T13:58:16.404Z,24.30
2018-06-24T14:00:45.786Z,24.60
2018-06-24T14:03:15.145Z,25.00
2018-06-24T14:05:44.781Z,25.00
2018-06-24T14:08:14.508Z,24.80
2018-06-24T14:10:44.187Z,24.70
2018-06-24T14:13:13.524Z,24.80
2018-06-24T14:15:42.791Z,24.90
2018-06-24T14:18:12.201Z,24.90
2018-06-24T14:20:41.575Z,24.90
2018-06-24T14:23:11.327Z,24.90
2018-06-24T14:25:40.704Z,25.00
2018-06-24T14:28:10.168Z,24.90
2018-06-24T14:30:39.525Z,25.10
2018-06-24T14:33:09.053Z,24.70
2018-06-24T14:35:38.509Z,24.60
2018-06-24T14:38:07.789Z,25.00
2018-06-24T14:40:37.171Z,24.40
2018-06-24T14:43:07.127Z,24.40
2018-06-24T14:45:37.207Z,24.40
2018-06-24T14:48:06.890Z,24.60
2018-06-24T14:50:36.549Z,24.10
2018-06-24T14:53:06.289Z,23.90
2018-06-24T14:55:35.794Z,23.80
2018-06-24T14:58:05.450Z,24.20
2018-06-24T15:00:35.083Z,24.50
2018-06-24T15:03:04.581Z,24.20
2018-06-24T15:05:33.800Z,24.30
2018-06-24T15:08:03.061Z,24.50
2018-06-24T15:10:32.340Z,24.30
2018-06-24T15:13:01.641Z,24.00
2018-06-24T15:15:31.125Z,24.30
2018-06-24T15:18:00.766Z,24.20
2018-06-24T15:20:30.252Z,24.30
2018-06-24T15:22:59.685Z,24.20
2018-06-24T15:25:29.148Z,24.30
2018-06-24T15:27:58.614Z,24.50
2018-06-24T15:30:28.012Z,24.50
2018-06-24T15:32:57.588Z,24.30
2018-06-24T15:35:27.108Z,24.50
2018-06-24T15:37:56.590Z,24.30
2018-06-24T15:40:26.208Z,24.50
2018-06-24T15:42:55.556Z,24.00
2018-06-24T15:45:25.256Z,24.10
2018-06-24T15:47:54.564Z,24.30
2018-06-24T15:50:24.057Z,24.40
2018-06-24T15:52:53.496Z,24.50
2018-06-24T15:55:23.176Z,24.60
2018-06-24T15:57:52.624Z,24.50
2018-06-24T16:00:22.256Z,24.80
2018-06-24T16:02:51.726Z,24.80
2018-06-24T16:05:22.339Z,24.80
2018-06-24T16:07:52.518Z,24.80
2018-06-24T16:10:21.998Z,24.70
2018-06-24T16:12:51.531Z,24.30
2018-06-24T16:15:20.793Z,24.30
2018-06-24T16:17:50.290Z,23.90
2018-06-24T16:20:19.780Z,23.80
2018-06-24T16:22:49.056Z,23.80
2018-06-24T16:25:18.386Z,24.10
2018-06-24T16:27:47.712Z,24.20
2018-06-24T16:30:17.156Z,23.90
2018-06-24T16:32:46.791Z,23.90
2018-06-24T16:35:16.352Z,23.60
2018-06-24T16:37:45.971Z,23.70
2018-06-24T16:40:15.553Z,23.40
2018-06-24T16:42:45.012Z,23.70
2018-06-24T16:45:14.351Z,23.80
2018-06-24T16:47:43.831Z,23.50
2018-06-24T16:50:13.291Z,23.60
2018-06-24T16:52:42.731Z,23.80
2018-06-24T16:55:12.510Z,23.50
2018-06-24T16:57:41.911Z,23.80
2018-06-24T17:00:11.371Z,23.50
2018-06-24T17:02:41.051Z,23.60
2018-06-24T17:05:10.733Z,23.70
2018-06-24T17:07:40.311Z,23.80
2018-06-24T17:10:09.711Z,23.60
2018-06-24T17:12:39.431Z,23.50
2018-06-24T17:15:09.072Z,23.50
2018-06-24T17:17:38.510Z,23.50
2018-06-24T17:20:08.211Z,23.40
2018-06-24T17:22:37.612Z,23.40
2018-06-24T17:25:07.011Z,23.30
2018-06-24T17:27:36.531Z,23.30
2018-06-24T17:30:06.492Z,23.30
2018-06-24T17:32:35.851Z,23.30
2018-06-24T17:35:05.371Z,23.30
2018-06-24T17:37:34.777Z,23.20
2018-06-24T17:40:04.351Z,23.20
2018-06-24T17:42:33.631Z,23.10
2018-06-24T17:45:03.136Z,23.00
2018-06-24T17:47:32.697Z,23.10
2018-06-24T17:50:01.932Z,23.10
2018-06-24T17:52:31.318Z,22.70
2018-06-24T17:55:00.814Z,22.60
2018-06-24T17:57:30.333Z,22.60
2018-06-24T17:59:59.913Z,22.60
2018-06-24T18:02:29.236Z,22.30
2018-06-24T18:04:58.813Z,22.50
2018-06-24T18:07:28.173Z,22.50
2018-06-24T18:09:57.813Z,22.40
2018-06-24T18:12:27.392Z,22.20
2018-06-24T18:14:56.953Z,22.10
2018-06-24T18:17:26.513Z,22.30
2018-06-24T18:19:55.975Z,22.10
2018-06-24T18:22:25.391Z,22.10
2018-06-24T18:24:54.850Z,21.80
2018-06-24T18:27:24.329Z,21.80
2018-06-24T18:29:53.730Z,21.70
2018-06-24T18:32:23.209Z,21.80
2018-06-24T18:34:52.410Z,21.80
2018-06-24T18:37:21.870Z,21.80
2018-06-24T18:39:51.235Z,21.90
2018-06-24T18:42:20.690Z,21.80
2018-06-24T18:44:50.013Z,21.70
2018-06-24T18:47:19.351Z,21.70
2018-06-24T18:49:48.830Z,21.80
2018-06-24T18:52:18.250Z,21.70
2018-06-24T18:54:47.770Z,21.80
2018-06-24T18:57:17.170Z,21.60
2018-06-24T18:59:46.532Z,21.60
2018-06-24T19:02:15.900Z,21.50
2018-06-24T19:04:45.411Z,21.50
2018-06-24T19:07:14.930Z,21.50
2018-06-24T19:09:44.269Z,21.50
2018-06-24T19:12:13.710Z,21.50
2018-06-24T19:14:44.129Z,21.50
2018-06-24T19:17:13.762Z,21.50
2018-06-24T19:19:43.150Z,21.50
2018-06-24T19:22:12.450Z,21.50
2018-06-24T19:24:41.970Z,21.30
2018-06-24T19:27:11.651Z,21.10
2018-06-24T19:29:40.930Z,21.20
2018-06-24T19:32:10.450Z,21.00
2018-06-24T19:34:39.890Z,20.90
2018-06-24T19:37:09.370Z,20.70
2018-06-24T19:39:38.835Z,20.70
2018-06-24T19:42:08.250Z,20.70
2018-06-24T19:44:37.670Z,20.50
2018-06-24T19:47:07.002Z,20.50
2018-06-24T19:49:36.432Z,20.40
2018-06-24T19:52:05.798Z,20.40
2018-06-24T19:54:35.311Z,20.30
2018-06-24T19:57:04.911Z,20.20
2018-06-24T19:59:34.488Z,20.10
2018-06-24T20:02:04.018Z,20.20
2018-06-24T20:04:33.392Z,20.00
2018-06-24T20:07:02.872Z,19.90
2018-06-24T20:09:32.331Z,19.80
2018-06-24T20:12:01.572Z,19.70
2018-06-24T20:14:30.990Z,19.50
2018-06-24T20:17:00.490Z,19.50
2018-06-24T20:19:29.771Z,19.40
2018-06-24T20:21:59.394Z,19.30
2018-06-24T20:24:28.750Z,19.20
2018-06-24T20:26:58.230Z,19.10
2018-06-24T20:29:27.770Z,19.00
2018-06-24T20:31:57.090Z,18.90
2018-06-24T20:34:26.514Z,18.90
2018-06-24T20:36:55.990Z,18.90
2018-06-24T20:39:25.130Z,18.90
2018-06-24T20:41:54.930Z,18.90
2018-06-24T20:44:24.507Z,18.90
2018-06-24T20:46:53.950Z,18.70
2018-06-24T20:49:23.310Z,18.60
2018-06-24T20:51:52.630Z,18.50
2018-06-24T20:54:21.970Z,18.40
2018-06-24T20:56:51.213Z,18.40
2018-06-24T20:59:20.750Z,18.40
2018-06-24T21:01:49.890Z,18.40
2018-06-24T21:04:19.149Z,18.30
2018-06-24T21:06:48.450Z,18.30
2018-06-24T21:09:17.842Z,18.30
2018-06-24T21:11:47.211Z,18.40
2018-06-24T21:14:16.629Z,18.30
2018-06-24T21:16:45.969Z,18.30
2018-06-24T21:19:15.553Z,18.20
2018-06-24T21:21:44.930Z,18.20
2018-06-24T21:24:14.350Z,18.20
2018-06-24T21:26:43.850Z,18.10
2018-06-24T21:29:13.170Z,18.00
2018-06-24T21:31:42.210Z,18.10
2018-06-24T21:34:11.711Z,18.10
2018-06-24T21:36:41.209Z,18.00
2018-06-24T21:39:10.809Z,18.00
2018-06-24T21:41:40.189Z,17.90
2018-06-24T21:44:09.550Z,17.80
2018-06-24T21:46:39.110Z,17.70
2018-06-24T21:49:08.542Z,17.70
2018-06-24T21:51:38.069Z,17.70
2018-06-24T21:54:07.611Z,17.70
2018-06-24T21:56:37.089Z,17.80
2018-06-24T21:59:06.510Z,17.80
2018-06-24T22:01:36.130Z,17.80
2018-06-24T22:04:05.570Z,17.80
2018-06-24T22:06:34.976Z,17.70
2018-06-24T22:09:07.189Z,17.70
2018-06-24T22:11:36.630Z,17.70
2018-06-24T22:14:06.230Z,17.70
2018-06-24T22:16:35.504Z,17.70
2018-06-24T22:19:04.930Z,17.70
2018-06-24T22:21:34.270Z,17.70
2018-06-24T22:24:03.718Z,17.60
2018-06-24T22:26:33.070Z,17.60
2018-06-24T22:29:02.410Z,17.50
2018-06-24T22:31:31.790Z,17.60
2018-06-24T22:34:01.210Z,17.50
2018-06-24T22:36:30.737Z,17.50
2018-06-24T22:39:00.450Z,17.60
2018-06-24T22:41:29.820Z,17.60
2018-06-24T22:43:59.290Z,17.60
2018-06-24T22:46:28.750Z,17.60
2018-06-24T22:48:58.030Z,17.70
2018-06-24T22:51:27.630Z,17.60
2018-06-24T22:53:56.853Z,17.50
2018-06-24T22:56:26.190Z,17.50
2018-06-24T22:59:12.011Z,17.50
2018-06-24T23:01:41.470Z,17.50
2018-06-24T23:04:10.931Z,17.40
2018-06-24T23:06:40.371Z,17.30
2018-06-24T23:09:09.689Z,17.20
2018-06-24T23:11:39.189Z,17.00
2018-06-24T23:14:08.870Z,17.10
2018-06-24T23:16:38.474Z,17.10
2018-06-24T23:19:07.810Z,17.00
2018-06-24T23:21:37.230Z,16.90
2018-06-24T23:24:06.409Z,16.80
2018-06-24T23:26:35.849Z,16.70
2018-06-24T23:29:05.250Z,16.60
2018-06-24T23:31:35.009Z,16.60
2018-06-24T23:34:04.329Z,16.50
2018-06-24T23:36:33.770Z,16.40
2018-06-24T23:39:03.569Z,16.30
2018-06-24T23:41:32.869Z,16.30
2018-06-24T23:44:02.369Z,16.10
2018-06-24T23:46:31.469Z,16.10
2018-06-24T23:49:00.857Z,16.10
2018-06-24T23:51:30.290Z,16.00
2018-06-24T23:53:59.830Z,15.90
2018-06-24T23:56:29.250Z,15.80
2018-06-24T23:58:58.749Z,15.80
